RESULTATS »

INSCRITS PRESENTATS ACABEN RETIRATS DESQUALIFICATS DIST. TRAM 1 DIST. TRAM 2 DIST. TRAM 3 TEMP. EXT TEMP. AIGUA
0 0 0 0 750 20 5 0 0

CLASSIFICACIÓ

MASCULÍ FEMENÍ CATEGORIES CLUBS (MASCULINA) CLUBS (FEMENINA) INDIVIDUALS GRUPS D'EDAT

LLOCDORSALNOMCLUBCAT.T.META| P.Tram 1 || P.Tram 2 |Km/hTEMPS| P.Tram 3 |PARC_1PARC_2
1 3509ANAIS RIVAS TORRESC.N. MATAROSUB23F01:04:135600:10:2624600:35:3433.7400:46:009100:18:130:00:000:00:00
2 125MARTA BOTSORACERRR IGUALADAJNF01:04:3710000:11:2817700:34:3234.7500:46:0011300:18:370:00:000:00:00
3 15SHEILA BRILLAS FERNANDEZC.N. MATAROJNF01:04:384800:10:2018300:34:3534.7000:44:5517200:19:430:00:000:00:00
4 22DOLÇA OLLE GATELLC.N. REUS PLOMSABF01:05:1510100:11:2817400:34:3034.7800:45:5814400:19:170:00:000:00:00
5 17JESSICA BRILLAS FERNANDEZC.N. MATAROCDF01:05:414300:10:1520000:34:4634.5200:45:0122800:20:400:00:000:00:00
6 6004SILVIA FERRER GAYANCLUB DEPORTIVO HUESCAV1F01:06:2617500:12:4225000:35:4233.6100:48:247900:18:020:00:000:00:00
7 12MAR CELMA MARINC.N. PRAT-TRIATLOABF01:06:375800:10:2724900:35:3933.6600:46:0621900:20:310:00:000:00:00
8 1988BELEN HIDALGO VALLSC.T.S.J. ABADESSESABF01:07:437200:10:5730900:37:2332.1000:48:2015200:19:230:00:000:00:00
9 1825CLAUDIA LUNA BONACHERAC.N. MATAROCDF01:08:0911000:11:3424700:35:3733.6900:47:1124600:20:580:00:000:00:00
10 1905CAROLINA VALMAÑA PIC.N. CATALUNYAABF01:08:4920700:13:1622800:35:1634.0300:48:3221100:20:170:00:000:00:00
11 5006XENIA PALLARES CIURANALLICENCIA DE DIAABF01:09:0815000:12:2020800:34:5934.3000:47:1929100:21:490:00:000:00:00
12 4080MIRIAM ALBERO ABASCALI3 TRIATHLONSUB23F01:09:1520000:13:0924300:35:3333.7600:48:4222100:20:330:00:000:00:00
13 1912MERCE ASENSIO MIGUELC.N. CATALUNYAV1F01:09:3414800:12:2026300:35:5333.4400:48:1326800:21:210:00:000:00:00
14 123CATARINA SOUSACLUB TRIATLO SABADELLABF01:10:4910300:11:3028800:36:4832.6100:48:1832300:22:310:00:000:00:00
15 3553LAIA MARTIN MAGDALENAGAVA TRIATLOCDF01:11:0316300:12:3526200:35:5233.4600:48:2732600:22:360:00:000:00:00
16 1837LAURA MAQUEDA MARCOSC.N. PRAT-TRIATLOABF01:12:1612700:11:4528300:36:3932.7400:48:2438200:23:520:00:000:00:00
17 3521MONICA CRISOL SALASC.N. PRAT-TRIATLOABF01:13:3622000:13:2835700:39:0530.7000:52:3324900:21:030:00:000:00:00
18 1891BEATRIZ MOLERO BELTRANI3 TRIATHLONV1F01:14:0527100:14:0031300:37:2732.0400:51:2732800:22:380:00:000:00:00
19 47LAURA RODRIGUEZ BOTIASCERDANYOLA CHABF01:14:3931700:14:3128200:36:3832.7600:51:0936800:23:300:00:000:00:00
20 4013BEATRIZ AGUILAR PIQUÉC.E. TRIATHLONBCN PROBIKEABF01:15:0535600:15:0336800:39:3330.3400:54:3621600:20:290:00:000:00:00
21 4079LAURA GONZALVO BONILLAI3 TRIATHLONABF01:15:4319900:13:0933400:38:1231.4100:51:2139500:24:220:00:000:00:00
22 3536MAITE ROVIRA CASTELLACLUB NATACIO CALDESV1F01:15:4536600:15:1936900:39:3630.3000:54:5523700:20:500:00:000:00:00
23 6002ASCENSION VALENZUELA ARMEBAZ. TRIATLON CIERZOV1F01:15:5335400:15:0034700:38:4930.9100:53:4929900:22:040:00:000:00:00
24 5083LEA LLORENS SANCHEZLLICENCIA DE DIAABF01:16:0034200:14:4828500:36:4532.6500:51:3339700:24:270:00:000:00:00
25 5002ANA BLANCO GONZALEZBAZ. TRIATLON CIERZOABF01:16:1825500:13:5135400:39:0130.7600:52:5236500:23:260:00:000:00:00
26 4060ROSER RUIZ VELASCOGAVA TRIATLOV1F01:17:2022100:13:2936500:39:2830.4100:52:5739600:24:230:00:000:00:00
27 1956ARANTXA LOPEZ GRAUCLUB ESPAI ESPORT WELLNESABF01:17:4417200:12:3934600:38:4630.9500:51:2542900:26:190:00:000:00:00
28 3598ANA NAVARRO CANTOSCLUB TRIATLO BADIA DEL VAABF01:18:0117800:12:4436300:39:1330.6000:51:5742200:26:040:00:000:00:00
29 6063ALEJANDRA FERNANDEZ PEREZLLICENCIA DE DIAABF01:18:0539900:16:0635600:39:0530.7000:55:1134600:22:540:00:000:00:00
30 1968SUSANNA LLOPART BELLOCC.A. IGUALADAABF01:18:3741000:16:2735100:38:5530.8400:55:2235700:23:150:00:000:00:00
31 4051CLARA SEGUÉS VIDALC.N. CATALUNYAABF01:18:5826400:13:5537900:40:2029.7500:54:1540200:24:430:00:000:00:00
32 6009MARTA FORN OSSORIOLLICENCIA DE DIAV2F01:19:4934400:14:4838000:40:2029.7500:55:0840100:24:410:00:000:00:00
33 5090JESSICA ROJAS RODRÍGUEZLLICENCIA DE DIAABF01:20:0120500:13:1342400:43:3927.4900:56:5235400:23:090:00:000:00:00
34 4056MARLENE OVEJERO LAINCLUB ESPORTIU CALAFELL RUABF01:20:1430300:14:1938700:40:4029.5100:54:5941100:25:150:00:000:00:00
35 5008BLANCA TORRENT COLLLLICENCIA DE DIAABF01:21:0928600:14:0939800:41:0829.1700:55:1741900:25:520:00:000:00:00
36 3510MIRIAM OMS ARIASCLUB TRIATLO SABADELLV1F01:22:1038300:15:4237700:40:0729.9100:55:4943200:26:210:00:000:00:00
37 75FLO TÉLLEZ GONZÁLEZI3 TRIATHLONV1F01:22:1642600:17:2141800:42:5128.0001:00:1230000:22:040:00:000:00:00
38 5010LAURA MONTANER CHULVILLICENCIA DE DIAABF01:22:1632100:14:3443500:45:2126.4600:59:5531700:22:210:00:000:00:00
39 4055CARLA FIGUERA FERRERC.D. FASTTRIATLONSUB23F01:22:3024200:13:4531600:37:3231.9700:51:1744800:31:130:00:000:00:00
40 6043ANNA GIMENOLLICENCIA DE DIAABF01:22:4324600:13:4741000:42:1728.3800:56:0443500:26:390:00:000:00:00
41 1862EUGENIA GONZALEZ TAULÉGAVA TRIATLOV1F01:23:0726000:13:5338600:40:4029.5100:54:3344400:28:340:00:000:00:00
42 6048MARIBEL GABÁS POLOLLICENCIA DE DIAV1F01:23:4727300:14:0343600:45:5126.1700:59:5438300:23:530:00:000:00:00
43 4073IRENE FERNANDEZ MINGCLUB ESPORTIU CALAFELL RUABF01:23:5540600:16:2236400:39:1930.5200:55:4144200:28:140:00:000:00:00
44 6042LAURA BARRIO LORENZOLLICENCIA DE DIAABF01:24:0324700:13:4742700:44:0327.2400:57:5042500:26:130:00:000:00:00
45 4014MARIBEL GOMEZ GARCIAC.D. FASTTRIATLONV1F01:24:5239800:16:0341300:42:2828.2600:58:3143000:26:210:00:000:00:00
46 4048MARIA DEL MAR CAMPOS RODRC.A. IGUALADAABF01:26:5736400:15:1539400:40:5229.3600:56:0744700:30:500:00:000:00:00
47 1851MARTA SANCHEZ SALINASCLUB TRIATLO L´EIX DE NAVV1F01:27:1839200:15:5543100:44:4726.8001:00:4243400:26:360:00:000:00:00
48 5004MARIA TERESA AYALA ORTIZ EL ANUARIO.NET TRIATLON EABF01:27:24000:00:00000:00:000.0000:55:5644900:31:280:00:000:00:00
49 5050ESTEFANÍA RAMÍREZ BALLESTLLICENCIA DE DIAABF01:29:4741600:16:4344300:46:1625.9401:02:5943900:26:480:00:000:00:00
50 6055ROCIO TORRE RUIZLLICENCIA DE DIAV1F01:30:2344000:20:1342500:43:4927.3901:04:0243100:26:210:00:000:00:00
51 6025RAQUEL GIMÉNEZ RECOLONSLLICENCIA DE DIAV1F01:30:4643900:20:0344400:47:1525.4001:07:1836700:23:280:00:000:00:00
52 3554CLARA CÁCERES LÓPEZC.N. PRAT-TRIATLOABF01:31:4444300:20:5442900:44:4026.8701:05:3442300:26:100:00:000:00:00
53 5071MERCE ESTIVILL VILELLALLICENCIA DE DIAV1F01:39:4643100:18:1144700:54:1922.0901:12:3044000:27:160:00:000:00:00






FEDERACIÓ CATALANA DE TRIATLÓ
SEU CENTRAL I CORRESPONDÈNCIA: Rambla Guipúscoa 23-25 2on-D · 08018 Barcelona · Tel / Fax : 93 307 93 35
ATENCIÓ AL PÚBLIC: Passeig Joan de Borbó, 93 (Club Natació Barcelona) · 08039 Barcelona · Tel / Fax : 93 307 93 32